sensor_id;sensor_type;location;lat;lon;timestamp;temperature;humidity
67901;DHT22;54700;51.796;10.956;2024-03-23T00:55:25;8.10;93.90
67901;DHT22;54700;51.796;10.956;2024-03-23T00:57:52;8.10;94.10
67901;DHT22;54700;51.796;10.956;2024-03-23T01:00:19;8.00;93.90
67901;DHT22;54700;51.796;10.956;2024-03-23T01:02:46;8.10;93.90
67901;DHT22;54700;51.796;10.956;2024-03-23T01:05:12;8.10;94.40
67901;DHT22;54700;51.796;10.956;2024-03-23T01:07:38;8.10;94.20
67901;DHT22;54700;51.796;10.956;2024-03-23T01:10:05;8.10;94.30
67901;DHT22;54700;51.796;10.956;2024-03-23T01:12:32;8.00;94.20
67901;DHT22;54700;51.796;10.956;2024-03-23T01:15:00;8.00;94.10
67901;DHT22;54700;51.796;10.956;2024-03-23T01:17:26;8.00;94.70
67901;DHT22;54700;51.796;10.956;2024-03-23T01:19:52;7.90;94.60
67901;DHT22;54700;51.796;10.956;2024-03-23T01:22:18;7.90;95.40
67901;DHT22;54700;51.796;10.956;2024-03-23T01:24:45;7.80;95.50
67901;DHT22;54700;51.796;10.956;2024-03-23T01:27:11;7.80;95.90
67901;DHT22;54700;51.796;10.956;2024-03-23T01:29:38;7.70;96.80
67901;DHT22;54700;51.796;10.956;2024-03-23T01:32:05;7.60;97.10
67901;DHT22;54700;51.796;10.956;2024-03-23T01:34:33;7.60;98.20
67901;DHT22;54700;51.796;10.956;2024-03-23T01:36:59;7.50;98.20
67901;DHT22;54700;51.796;10.956;2024-03-23T01:39:26;7.50;98.50
67901;DHT22;54700;51.796;10.956;2024-03-23T01:41:52;7.50;98.60
67901;DHT22;54700;51.796;10.956;2024-03-23T01:44:19;7.50;98.10
67901;DHT22;54700;51.796;10.956;2024-03-23T01:46:45;7.50;97.90
67901;DHT22;54700;51.796;10.956;2024-03-23T01:49:13;7.60;97.90
67901;DHT22;54700;51.796;10.956;2024-03-23T01:51:39;7.60;97.90
67901;DHT22;54700;51.796;10.956;2024-03-23T01:54:08;7.60;97.60
67901;DHT22;54700;51.796;10.956;2024-03-23T01:56:34;7.60;97.20
67901;DHT22;54700;51.796;10.956;2024-03-23T01:59:01;7.60;96.70
67901;DHT22;54700;51.796;10.956;2024-03-23T02:01:27;7.60;96.50
67901;DHT22;54700;51.796;10.956;2024-03-23T02:03:54;7.60;96.60
67901;DHT22;54700;51.796;10.956;2024-03-23T02:06:21;7.60;95.80
67901;DHT22;54700;51.796;10.956;2024-03-23T02:08:49;7.60;95.60
67901;DHT22;54700;51.796;10.956;2024-03-23T02:11:14;7.60;95.80
67901;DHT22;54700;51.796;10.956;2024-03-23T02:13:41;7.50;95.60
67901;DHT22;54700;51.796;10.956;2024-03-23T02:16:07;7.60;95.60
67901;DHT22;54700;51.796;10.956;2024-03-23T02:18:34;7.50;95.70
67901;DHT22;54700;51.796;10.956;2024-03-23T02:21:00;7.50;95.90
67901;DHT22;54700;51.796;10.956;2024-03-23T02:23:29;7.50;95.60
67901;DHT22;54700;51.796;10.956;2024-03-23T02:25:54;7.50;95.80
67901;DHT22;54700;51.796;10.956;2024-03-23T02:28:21;7.50;95.70
67901;DHT22;54700;51.796;10.956;2024-03-23T02:30:48;7.50;95.90
67901;DHT22;54700;51.796;10.956;2024-03-23T02:33:15;7.50;95.80
67901;DHT22;54700;51.796;10.956;2024-03-23T02:35:41;7.50;96.00
67901;DHT22;54700;51.796;10.956;2024-03-23T02:38:08;7.50;96.00
67901;DHT22;54700;51.796;10.956;2024-03-23T02:40:36;7.50;96.50
67901;DHT22;54700;51.796;10.956;2024-03-23T02:43:03;7.40;96.40
67901;DHT22;54700;51.796;10.956;2024-03-23T02:45:29;7.40;96.60
67901;DHT22;54700;51.796;10.956;2024-03-23T02:47:56;7.30;97.20
67901;DHT22;54700;51.796;10.956;2024-03-23T02:50:22;7.30;97.60
67901;DHT22;54700;51.796;10.956;2024-03-23T02:52:49;7.20;98.00
67901;DHT22;54700;51.796;10.956;2024-03-23T02:55:15;7.20;98.20
67901;DHT22;54700;51.796;10.956;2024-03-23T02:57:43;7.10;98.80
67901;DHT22;54700;51.796;10.956;2024-03-23T03:00:10;7.00;98.70
67901;DHT22;54700;51.796;10.956;2024-03-23T03:02:38;6.90;98.10
67901;DHT22;54700;51.796;10.956;2024-03-23T03:05:04;6.90;98.10
67901;DHT22;54700;51.796;10.956;2024-03-23T03:07:31;6.80;98.20
67901;DHT22;54700;51.796;10.956;2024-03-23T03:09:57;6.80;98.50
67901;DHT22;54700;51.796;10.956;2024-03-23T03:12:24;6.80;98.80
67901;DHT22;54700;51.796;10.956;2024-03-23T03:14:51;6.70;99.80
67901;DHT22;54700;51.796;10.956;2024-03-23T03:17:18;6.60;99.90
67901;DHT22;54700;51.796;10.956;2024-03-23T03:19:44;6.60;99.90
67901;DHT22;54700;51.796;10.956;2024-03-23T03:22:12;6.70;99.90
67901;DHT22;54700;51.796;10.956;2024-03-23T03:24:38;6.70;99.90
67901;DHT22;54700;51.796;10.956;2024-03-23T03:27:04;6.70;99.90
67901;DHT22;54700;51.796;10.956;2024-03-23T03:29:32;6.60;99.70
67901;DHT22;54700;51.796;10.956;2024-03-23T03:32:03;6.60;99.30
67901;DHT22;54700;51.796;10.956;2024-03-23T03:34:30;6.50;99.00
67901;DHT22;54700;51.796;10.956;2024-03-23T03:36:56;6.50;99.40
67901;DHT22;54700;51.796;10.956;2024-03-23T03:39:23;6.50;99.90
67901;DHT22;54700;51.796;10.956;2024-03-23T03:41:49;6.50;99.90
67901;DHT22;54700;51.796;10.956;2024-03-23T03:44:17;6.40;99.90
67901;DHT22;54700;51.796;10.956;2024-03-23T03:46:42;6.40;99.90
67901;DHT22;54700;51.796;10.956;2024-03-23T03:49:11;6.30;99.90
67901;DHT22;54700;51.796;10.956;2024-03-23T03:51:37;6.20;99.90
67901;DHT22;54700;51.796;10.956;2024-03-23T03:54:03;6.10;99.90
67901;DHT22;54700;51.796;10.956;2024-03-23T03:56:29;6.10;99.90
67901;DHT22;54700;51.796;10.956;2024-03-23T03:58:56;6.00;99.90
67901;DHT22;54700;51.796;10.956;2024-03-23T04:01:22;5.90;99.90
67901;DHT22;54700;51.796;10.956;2024-03-23T04:03:49;5.80;99.90
67901;DHT22;54700;51.796;10.956;2024-03-23T04:06:19;5.80;99.90
67901;DHT22;54700;51.796;10.956;2024-03-23T04:08:46;5.80;99.90
67901;DHT22;54700;51.796;10.956;2024-03-23T04:11:12;5.70;99.90
67901;DHT22;54700;51.796;10.956;2024-03-23T04:13:39;5.80;99.90
67901;DHT22;54700;51.796;10.956;2024-03-23T04:16:07;5.70;99.90
67901;DHT22;54700;51.796;10.956;2024-03-23T04:18:34;5.60;99.90
67901;DHT22;54700;51.796;10.956;2024-03-23T04:21:00;5.50;99.90
67901;DHT22;54700;51.796;10.956;2024-03-23T04:23:28;5.50;99.90
67901;DHT22;54700;51.796;10.956;2024-03-23T04:25:54;5.40;99.90
67901;DHT22;54700;51.796;10.956;2024-03-23T04:28:21;5.40;99.90
67901;DHT22;54700;51.796;10.956;2024-03-23T04:30:47;5.40;99.90
67901;DHT22;54700;51.796;10.956;2024-03-23T04:33:14;5.40;99.90
67901;DHT22;54700;51.796;10.956;2024-03-23T04:35:40;5.30;99.90
67901;DHT22;54700;51.796;10.956;2024-03-23T04:38:07;5.30;99.90
67901;DHT22;54700;51.796;10.956;2024-03-23T04:40:35;5.20;99.90
67901;DHT22;54700;51.796;10.956;2024-03-23T04:43:02;5.20;99.90
67901;DHT22;54700;51.796;10.956;2024-03-23T04:45:29;5.20;99.90
67901;DHT22;54700;51.796;10.956;2024-03-23T04:47:56;5.20;99.90
67901;DHT22;54700;51.796;10.956;2024-03-23T04:50:23;5.20;99.90
67901;DHT22;54700;51.796;10.956;2024-03-23T04:52:50;5.20;99.90
67901;DHT22;54700;51.796;10.956;2024-03-23T04:55:17;5.20;99.90
67901;DHT22;54700;51.796;10.956;2024-03-23T04:57:45;5.20;99.90
67901;DHT22;54700;51.796;10.956;2024-03-23T05:00:12;5.20;99.90
67901;DHT22;54700;51.796;10.956;2024-03-23T05:02:43;5.30;99.90
67901;DHT22;54700;51.796;10.956;2024-03-23T05:05:10;5.30;99.90
67901;DHT22;54700;51.796;10.956;2024-03-23T05:07:37;5.30;99.90
67901;DHT22;54700;51.796;10.956;2024-03-23T05:10:03;5.20;99.90
67901;DHT22;54700;51.796;10.956;2024-03-23T05:12:30;5.20;99.90
67901;DHT22;54700;51.796;10.956;2024-03-23T05:14:58;5.20;99.90
67901;DHT22;54700;51.796;10.956;2024-03-23T05:17:25;5.10;99.90
67901;DHT22;54700;51.796;10.956;2024-03-23T05:19:50;5.00;99.90
67901;DHT22;54700;51.796;10.956;2024-03-23T05:22:17;4.90;99.90
67901;DHT22;54700;51.796;10.956;2024-03-23T05:24:44;4.80;99.90
67901;DHT22;54700;51.796;10.956;2024-03-23T05:27:12;4.70;99.90
67901;DHT22;54700;51.796;10.956;2024-03-23T05:29:37;4.70;99.90
67901;DHT22;54700;51.796;10.956;2024-03-23T05:32:06;4.70;99.90
67901;DHT22;54700;51.796;10.956;2024-03-23T05:34:32;4.70;99.90
67901;DHT22;54700;51.796;10.956;2024-03-23T05:36:59;4.70;99.90
67901;DHT22;54700;51.796;10.956;2024-03-23T05:39:25;4.60;99.90
67901;DHT22;54700;51.796;10.956;2024-03-23T05:41:52;4.60;99.90
67901;DHT22;54700;51.796;10.956;2024-03-23T05:44:18;4.60;99.90
67901;DHT22;54700;51.796;10.956;2024-03-23T05:46:45;4.60;99.90
67901;DHT22;54700;51.796;10.956;2024-03-23T05:49:15;4.60;99.90
67901;DHT22;54700;51.796;10.956;2024-03-23T05:51:43;4.50;99.90
67901;DHT22;54700;51.796;10.956;2024-03-23T05:54:09;4.50;99.90
67901;DHT22;54700;51.796;10.956;2024-03-23T05:56:36;4.50;99.90
67901;DHT22;54700;51.796;10.956;2024-03-23T05:59:01;4.50;99.90
67901;DHT22;54700;51.796;10.956;2024-03-23T06:01:29;4.50;99.90
67901;DHT22;54700;51.796;10.956;2024-03-23T06:03:58;4.50;99.90
67901;DHT22;54700;51.796;10.956;2024-03-23T06:06:27;4.50;99.90
67901;DHT22;54700;51.796;10.956;2024-03-23T06:08:55;4.50;99.90
67901;DHT22;54700;51.796;10.956;2024-03-23T06:11:22;4.50;99.90
67901;DHT22;54700;51.796;10.956;2024-03-23T06:13:48;4.50;99.90
67901;DHT22;54700;51.796;10.956;2024-03-23T06:16:15;4.50;99.90
67901;DHT22;54700;51.796;10.956;2024-03-23T06:18:41;4.40;99.90
67901;DHT22;54700;51.796;10.956;2024-03-23T06:21:12;4.30;99.90
67901;DHT22;54700;51.796;10.956;2024-03-23T06:23:40;4.20;99.90
67901;DHT22;54700;51.796;10.956;2024-03-23T06:26:07;4.20;99.90
67901;DHT22;54700;51.796;10.956;2024-03-23T06:28:33;4.20;99.90
67901;DHT22;54700;51.796;10.956;2024-03-23T06:31:01;4.20;99.90
67901;DHT22;54700;51.796;10.956;2024-03-23T06:33:27;4.20;99.90
67901;DHT22;54700;51.796;10.956;2024-03-23T06:35:54;4.20;99.90
67901;DHT22;54700;51.796;10.956;2024-03-23T06:38:20;4.20;99.90
67901;DHT22;54700;51.796;10.956;2024-03-23T06:40:48;4.20;99.90
67901;DHT22;54700;51.796;10.956;2024-03-23T06:43:16;4.20;99.90
67901;DHT22;54700;51.796;10.956;2024-03-23T06:45:42;4.10;99.90
67901;DHT22;54700;51.796;10.956;2024-03-23T06:48:08;4.10;99.90
67901;DHT22;54700;51.796;10.956;2024-03-23T06:50:35;4.10;99.90
67901;DHT22;54700;51.796;10.956;2024-03-23T06:53:01;4.10;99.90
67901;DHT22;54700;51.796;10.956;2024-03-23T06:55:30;4.10;99.90
67901;DHT22;54700;51.796;10.956;2024-03-23T06:57:57;4.20;99.90
67901;DHT22;54700;51.796;10.956;2024-03-23T07:00:24;4.20;99.90
67901;DHT22;54700;51.796;10.956;2024-03-23T07:02:50;4.20;99.90
67901;DHT22;54700;51.796;10.956;2024-03-23T07:05:17;4.30;99.90
67901;DHT22;54700;51.796;10.956;2024-03-23T07:07:43;4.30;99.90
67901;DHT22;54700;51.796;10.956;2024-03-23T07:10:10;4.30;99.90
67901;DHT22;54700;51.796;10.956;2024-03-23T07:12:36;4.30;99.90
67901;DHT22;54700;51.796;10.956;2024-03-23T07:15:05;4.40;99.90
67901;DHT22;54700;51.796;10.956;2024-03-23T07:17:31;4.40;99.90
67901;DHT22;54700;51.796;10.956;2024-03-23T07:20:00;4.30;99.90
67901;DHT22;54700;51.796;10.956;2024-03-23T07:22:29;4.40;99.90
67901;DHT22;54700;51.796;10.956;2024-03-23T07:24:56;4.40;99.90
67901;DHT22;54700;51.796;10.956;2024-03-23T07:27:21;4.30;99.90
67901;DHT22;54700;51.796;10.956;2024-03-23T07:29:49;4.30;99.90
67901;DHT22;54700;51.796;10.956;2024-03-23T07:32:16;4.30;99.90
67901;DHT22;54700;51.796;10.956;2024-03-23T07:34:43;4.30;99.90
67901;DHT22;54700;51.796;10.956;2024-03-23T07:37:09;4.30;99.90
67901;DHT22;54700;51.796;10.956;2024-03-23T07:39:36;4.30;99.90
67901;DHT22;54700;51.796;10.956;2024-03-23T07:42:02;4.30;99.90
67901;DHT22;54700;51.796;10.956;2024-03-23T07:44:29;4.30;99.90
67901;DHT22;54700;51.796;10.956;2024-03-23T07:46:55;4.30;99.90
67901;DHT22;54700;51.796;10.956;2024-03-23T07:49:24;4.30;99.90
67901;DHT22;54700;51.796;10.956;2024-03-23T07:51:49;4.30;99.90
67901;DHT22;54700;51.796;10.956;2024-03-23T07:54:16;4.40;99.90
67901;DHT22;54700;51.796;10.956;2024-03-23T07:56:42;4.40;99.90
67901;DHT22;54700;51.796;10.956;2024-03-23T07:59:09;4.40;99.90
67901;DHT22;54700;51.796;10.956;2024-03-23T08:01:36;4.40;99.90
67901;DHT22;54700;51.796;10.956;2024-03-23T08:04:03;4.40;99.90
67901;DHT22;54700;51.796;10.956;2024-03-23T08:06:30;4.40;99.90
67901;DHT22;54700;51.796;10.956;2024-03-23T08:08:57;4.40;99.90
67901;DHT22;54700;51.796;10.956;2024-03-23T08:11:25;4.40;99.90
67901;DHT22;54700;51.796;10.956;2024-03-23T08:13:52;4.40;99.90
67901;DHT22;54700;51.796;10.956;2024-03-23T08:16:18;4.40;99.90
67901;DHT22;54700;51.796;10.956;2024-03-23T08:18:45;4.30;99.90
67901;DHT22;54700;51.796;10.956;2024-03-23T08:21:11;4.30;99.90
67901;DHT22;54700;51.796;10.956;2024-03-23T08:23:39;4.30;99.90
67901;DHT22;54700;51.796;10.956;2024-03-23T08:26:05;4.30;99.90
67901;DHT22;54700;51.796;10.956;2024-03-23T08:28:34;4.30;99.90
67901;DHT22;54700;51.796;10.956;2024-03-23T08:31:00;4.30;99.90
67901;DHT22;54700;51.796;10.956;2024-03-23T08:33:29;4.30;99.90
67901;DHT22;54700;51.796;10.956;2024-03-23T08:35:55;4.30;99.90
67901;DHT22;54700;51.796;10.956;2024-03-23T08:38:23;4.20;99.90
67901;DHT22;54700;51.796;10.956;2024-03-23T08:40:57;4.10;99.90
67901;DHT22;54700;51.796;10.956;2024-03-23T08:43:24;4.10;99.90
67901;DHT22;54700;51.796;10.956;2024-03-23T08:45:51;4.10;99.90
67901;DHT22;54700;51.796;10.956;2024-03-23T08:48:18;4.10;99.90
67901;DHT22;54700;51.796;10.956;2024-03-23T08:50:45;4.10;99.90
67901;DHT22;54700;51.796;10.956;2024-03-23T08:53:12;4.10;99.90
67901;DHT22;54700;51.796;10.956;2024-03-23T08:55:38;4.10;99.90
67901;DHT22;54700;51.796;10.956;2024-03-23T08:58:07;4.20;99.90
67901;DHT22;54700;51.796;10.956;2024-03-23T09:00:34;4.30;99.90
67901;DHT22;54700;51.796;10.956;2024-03-23T09:03:01;4.40;99.90
67901;DHT22;54700;51.796;10.956;2024-03-23T09:05:27;4.50;99.90
67901;DHT22;54700;51.796;10.956;2024-03-23T09:08:00;4.70;99.50
67901;DHT22;54700;51.796;10.956;2024-03-23T09:10:26;4.80;99.00
67901;DHT22;54700;51.796;10.956;2024-03-23T09:12:53;4.90;97.60
67901;DHT22;54700;51.796;10.956;2024-03-23T09:15:20;5.00;97.10
67901;DHT22;54700;51.796;10.956;2024-03-23T09:17:47;5.10;96.60
67901;DHT22;54700;51.796;10.956;2024-03-23T09:20:13;5.10;96.70
67901;DHT22;54700;51.796;10.956;2024-03-23T09:22:39;5.20;96.40
67901;DHT22;54700;51.796;10.956;2024-03-23T09:25:06;5.30;96.50
67901;DHT22;54700;51.796;10.956;2024-03-23T09:27:33;5.30;95.30
67901;DHT22;54700;51.796;10.956;2024-03-23T09:29:59;5.40;95.10
67901;DHT22;54700;51.796;10.956;2024-03-23T09:32:27;5.50;96.00
67901;DHT22;54700;51.796;10.956;2024-03-23T09:34:53;5.50;96.70
67901;DHT22;54700;51.796;10.956;2024-03-23T09:37:20;5.60;95.10
67901;DHT22;54700;51.796;10.956;2024-03-23T09:39:46;5.60;94.60
67901;DHT22;54700;51.796;10.956;2024-03-23T09:42:13;5.60;95.30
67901;DHT22;54700;51.796;10.956;2024-03-23T09:44:40;5.60;96.10
67901;DHT22;54700;51.796;10.956;2024-03-23T09:47:07;5.60;94.90
67901;DHT22;54700;51.796;10.956;2024-03-23T09:49:35;5.60;94.30
67901;DHT22;54700;51.796;10.956;2024-03-23T09:52:02;5.70;93.60
67901;DHT22;54700;51.796;10.956;2024-03-23T09:54:29;5.80;93.50
67901;DHT22;54700;51.796;10.956;2024-03-23T09:56:58;5.80;91.20
67901;DHT22;54700;51.796;10.956;2024-03-23T09:59:25;5.90;91.40
67901;DHT22;54700;51.796;10.956;2024-03-23T10:01:52;5.90;91.40
67901;DHT22;54700;51.796;10.956;2024-03-23T10:04:36;5.80;91.40
67901;DHT22;54700;51.796;10.956;2024-03-23T10:07:10;5.70;92.20
67901;DHT22;54700;51.796;10.956;2024-03-23T10:09:37;5.60;93.30
67901;DHT22;54700;51.796;10.956;2024-03-23T10:12:10;5.40;93.80
67901;DHT22;54700;51.796;10.956;2024-03-23T10:14:37;5.30;95.10
67901;DHT22;54700;51.796;10.956;2024-03-23T10:17:14;5.20;95.50
67901;DHT22;54700;51.796;10.956;2024-03-23T10:19:44;5.30;96.60
67901;DHT22;54700;51.796;10.956;2024-03-23T10:22:12;5.30;96.00
67901;DHT22;54700;51.796;10.956;2024-03-23T10:24:39;5.50;97.10
67901;DHT22;54700;51.796;10.956;2024-03-23T10:27:06;5.60;96.70
67901;DHT22;54700;51.796;10.956;2024-03-23T10:29:32;5.80;97.30
67901;DHT22;54700;51.796;10.956;2024-03-23T10:34:45;6.00;94.80
67901;DHT22;54700;51.796;10.956;2024-03-23T10:37:11;6.10;93.00
67901;DHT22;54700;51.796;10.956;2024-03-23T10:39:39;6.20;93.10
67901;DHT22;54700;51.796;10.956;2024-03-23T10:42:07;6.30;94.50
67901;DHT22;54700;51.796;10.956;2024-03-23T10:44:35;6.40;91.20
67901;DHT22;54700;51.796;10.956;2024-03-23T10:47:03;6.50;91.00
67901;DHT22;54700;51.796;10.956;2024-03-23T10:49:30;6.60;82.50
67901;DHT22;54700;51.796;10.956;2024-03-23T10:52:00;6.60;85.30
67901;DHT22;54700;51.796;10.956;2024-03-23T10:54:27;6.70;83.10
67901;DHT22;54700;51.796;10.956;2024-03-23T10:56:56;6.70;83.40
67901;DHT22;54700;51.796;10.956;2024-03-23T10:59:27;6.80;83.50
67901;DHT22;54700;51.796;10.956;2024-03-23T11:01:55;6.90;84.20
67901;DHT22;54700;51.796;10.956;2024-03-23T11:04:31;7.00;82.80
67901;DHT22;54700;51.796;10.956;2024-03-23T11:07:01;7.00;82.00
67901;DHT22;54700;51.796;10.956;2024-03-23T11:09:40;7.10;80.60
67901;DHT22;54700;51.796;10.956;2024-03-23T11:12:26;7.20;81.60
67901;DHT22;54700;51.796;10.956;2024-03-23T11:14:53;7.40;81.90
67901;DHT22;54700;51.796;10.956;2024-03-23T11:17:21;7.40;75.70
67901;DHT22;54700;51.796;10.956;2024-03-23T11:19:55;7.50;75.80
67901;DHT22;54700;51.796;10.956;2024-03-23T11:22:40;7.50;74.10
67901;DHT22;54700;51.796;10.956;2024-03-23T11:25:17;7.60;76.40
67901;DHT22;54700;51.796;10.956;2024-03-23T11:27:46;7.60;76.40
67901;DHT22;54700;51.796;10.956;2024-03-23T11:30:13;7.50;78.50
67901;DHT22;54700;51.796;10.956;2024-03-23T11:32:41;7.30;81.20
67901;DHT22;54700;51.796;10.956;2024-03-23T11:35:08;6.90;83.60
67901;DHT22;54700;51.796;10.956;2024-03-23T11:37:36;6.70;88.30
67901;DHT22;54700;51.796;10.956;2024-03-23T11:40:20;6.40;90.40
67901;DHT22;54700;51.796;10.956;2024-03-23T11:42:54;6.00;92.00
67901;DHT22;54700;51.796;10.956;2024-03-23T11:45:21;5.70;92.70
67901;DHT22;54700;51.796;10.956;2024-03-23T11:47:48;5.60;91.90
67901;DHT22;54700;51.796;10.956;2024-03-23T11:50:19;5.70;93.00
67901;DHT22;54700;51.796;10.956;2024-03-23T11:52:46;5.70;93.80
67901;DHT22;54700;51.796;10.956;2024-03-23T11:55:12;5.80;94.00
67901;DHT22;54700;51.796;10.956;2024-03-23T11:57:40;5.90;92.30
67901;DHT22;54700;51.796;10.956;2024-03-23T12:00:20;5.90;92.50
67901;DHT22;54700;51.796;10.956;2024-03-23T12:02:47;6.00;92.30
67901;DHT22;54700;51.796;10.956;2024-03-23T12:05:14;6.00;91.90
67901;DHT22;54700;51.796;10.956;2024-03-23T12:07:41;6.00;92.60
67901;DHT22;54700;51.796;10.956;2024-03-23T12:10:07;6.00;92.20
67901;DHT22;54700;51.796;10.956;2024-03-23T12:12:34;6.10;93.30
67901;DHT22;54700;51.796;10.956;2024-03-23T12:15:02;6.20;92.20
67901;DHT22;54700;51.796;10.956;2024-03-23T12:17:31;6.30;91.90
67901;DHT22;54700;51.796;10.956;2024-03-23T12:19:57;6.50;94.10
67901;DHT22;54700;51.796;10.956;2024-03-23T12:22:24;6.70;91.70
67901;DHT22;54700;51.796;10.956;2024-03-23T12:24:50;6.80;89.30
67901;DHT22;54700;51.796;10.956;2024-03-23T12:27:17;6.90;87.30
67901;DHT22;54700;51.796;10.956;2024-03-23T12:29:43;7.00;88.70
67901;DHT22;54700;51.796;10.956;2024-03-23T12:32:13;7.10;86.90
67901;DHT22;54700;51.796;10.956;2024-03-23T12:34:39;7.20;89.80
67901;DHT22;54700;51.796;10.956;2024-03-23T12:37:06;7.30;91.30
67901;DHT22;54700;51.796;10.956;2024-03-23T12:39:32;7.50;85.20
67901;DHT22;54700;51.796;10.956;2024-03-23T12:42:00;7.60;83.30
67901;DHT22;54700;51.796;10.956;2024-03-23T12:44:26;7.70;80.40
67901;DHT22;54700;51.796;10.956;2024-03-23T12:46:53;7.70;79.80
67901;DHT22;54700;51.796;10.956;2024-03-23T12:49:20;7.60;81.30
67901;DHT22;54700;51.796;10.956;2024-03-23T12:51:49;7.10;83.90
67901;DHT22;54700;51.796;10.956;2024-03-23T12:54:19;6.90;85.60
67901;DHT22;54700;51.796;10.956;2024-03-23T12:56:46;6.80;83.70
67901;DHT22;54700;51.796;10.956;2024-03-23T12:59:12;6.70;84.70
67901;DHT22;54700;51.796;10.956;2024-03-23T13:01:39;6.70;85.20
67901;DHT22;54700;51.796;10.956;2024-03-23T13:04:05;6.90;83.20
67901;DHT22;54700;51.796;10.956;2024-03-23T13:06:33;7.00;81.90
67901;DHT22;54700;51.796;10.956;2024-03-23T13:09:00;7.20;87.30
67901;DHT22;54700;51.796;10.956;2024-03-23T13:11:27;7.30;83.40
67901;DHT22;54700;51.796;10.956;2024-03-23T13:13:53;7.40;83.20
67901;DHT22;54700;51.796;10.956;2024-03-23T13:16:20;7.40;80.40
67901;DHT22;54700;51.796;10.956;2024-03-23T13:18:46;7.40;77.80
67901;DHT22;54700;51.796;10.956;2024-03-23T13:21:12;7.50;79.70
67901;DHT22;54700;51.796;10.956;2024-03-23T13:23:40;7.50;79.50
67901;DHT22;54700;51.796;10.956;2024-03-23T13:26:07;7.60;81.40
67901;DHT22;54700;51.796;10.956;2024-03-23T13:28:34;7.50;80.60
67901;DHT22;54700;51.796;10.956;2024-03-23T13:31:01;7.70;82.70
67901;DHT22;54700;51.796;10.956;2024-03-23T13:33:29;7.70;77.40
67901;DHT22;54700;51.796;10.956;2024-03-23T13:35:55;7.70;79.60
67901;DHT22;54700;51.796;10.956;2024-03-23T13:38:22;7.70;79.90
67901;DHT22;54700;51.796;10.956;2024-03-23T13:40:50;7.60;79.80
67901;DHT22;54700;51.796;10.956;2024-03-23T13:43:21;7.40;80.20
67901;DHT22;54700;51.796;10.956;2024-03-23T13:45:48;7.00;82.90
67901;DHT22;54700;51.796;10.956;2024-03-23T13:48:19;6.70;84.00
67901;DHT22;54700;51.796;10.956;2024-03-23T13:50:45;6.40;85.20
67901;DHT22;54700;51.796;10.956;2024-03-23T13:53:13;6.20;83.90
67901;DHT22;54700;51.796;10.956;2024-03-23T13:55:45;6.10;86.70
67901;DHT22;54700;51.796;10.956;2024-03-23T13:58:14;6.00;89.90
67901;DHT22;54700;51.796;10.956;2024-03-23T14:00:40;6.00;91.20
67901;DHT22;54700;51.796;10.956;2024-03-23T14:03:08;6.10;90.40
67901;DHT22;54700;51.796;10.956;2024-03-23T14:05:34;6.10;90.00
67901;DHT22;54700;51.796;10.956;2024-03-23T14:08:00;6.20;89.40
67901;DHT22;54700;51.796;10.956;2024-03-23T14:10:26;6.20;87.30
67901;DHT22;54700;51.796;10.956;2024-03-23T14:12:56;6.30;87.20
67901;DHT22;54700;51.796;10.956;2024-03-23T14:15:24;6.40;87.60
67901;DHT22;54700;51.796;10.956;2024-03-23T14:17:50;6.50;88.00
67901;DHT22;54700;51.796;10.956;2024-03-23T14:20:16;6.80;82.70
67901;DHT22;54700;51.796;10.956;2024-03-23T14:22:43;7.10;79.90
67901;DHT22;54700;51.796;10.956;2024-03-23T14:25:09;7.30;76.30
67901;DHT22;54700;51.796;10.956;2024-03-23T14:27:36;7.50;73.40
67901;DHT22;54700;51.796;10.956;2024-03-23T14:30:03;7.60;73.30
67901;DHT22;54700;51.796;10.956;2024-03-23T14:32:32;7.60;75.40
67901;DHT22;54700;51.796;10.956;2024-03-23T14:34:59;7.40;81.30
67901;DHT22;54700;51.796;10.956;2024-03-23T14:37:26;7.20;82.30
67901;DHT22;54700;51.796;10.956;2024-03-23T14:39:52;7.10;85.70
67901;DHT22;54700;51.796;10.956;2024-03-23T14:42:19;7.10;86.60
67901;DHT22;54700;51.796;10.956;2024-03-23T14:44:45;7.10;87.50
67901;DHT22;54700;51.796;10.956;2024-03-23T14:47:12;7.10;85.60
67901;DHT22;54700;51.796;10.956;2024-03-23T14:49:39;7.00;86.70
67901;DHT22;54700;51.796;10.956;2024-03-23T14:52:06;7.00;88.60
67901;DHT22;54700;51.796;10.956;2024-03-23T14:54:34;6.90;88.70
67901;DHT22;54700;51.796;10.956;2024-03-23T14:57:01;6.90;89.50
67901;DHT22;54700;51.796;10.956;2024-03-23T14:59:27;7.00;91.00
67901;DHT22;54700;51.796;10.956;2024-03-23T15:01:55;7.10;91.30
67901;DHT22;54700;51.796;10.956;2024-03-23T15:04:21;7.10;88.60
67901;DHT22;54700;51.796;10.956;2024-03-23T15:06:49;7.10;87.00
67901;DHT22;54700;51.796;10.956;2024-03-23T15:09:15;7.20;81.80
67901;DHT22;54700;51.796;10.956;2024-03-23T15:11:43;7.30;82.00
67901;DHT22;54700;51.796;10.956;2024-03-23T15:14:09;7.30;78.70
67901;DHT22;54700;51.796;10.956;2024-03-23T15:16:36;7.30;78.00
67901;DHT22;54700;51.796;10.956;2024-03-23T15:19:02;7.10;77.30
67901;DHT22;54700;51.796;10.956;2024-03-23T15:21:31;6.90;81.00
67901;DHT22;54700;51.796;10.956;2024-03-23T15:23:58;6.60;82.50
67901;DHT22;54700;51.796;10.956;2024-03-23T15:26:25;6.20;85.10
67901;DHT22;54700;51.796;10.956;2024-03-23T15:28:51;5.90;87.60
67901;DHT22;54700;51.796;10.956;2024-03-23T15:31:36;5.70;90.40
67901;DHT22;54700;51.796;10.956;2024-03-23T15:34:02;5.40;91.40
67901;DHT22;54700;51.796;10.956;2024-03-23T15:36:35;5.40;93.60
67901;DHT22;54700;51.796;10.956;2024-03-23T15:39:05;5.30;94.60
67901;DHT22;54700;51.796;10.956;2024-03-23T15:41:32;5.40;94.90
67901;DHT22;54700;51.796;10.956;2024-03-23T15:44:00;5.60;94.10
67901;DHT22;54700;51.796;10.956;2024-03-23T15:46:27;5.80;94.60
67901;DHT22;54700;51.796;10.956;2024-03-23T15:48:53;6.00;93.60
67901;DHT22;54700;51.796;10.956;2024-03-23T15:51:21;6.10;93.60
67901;DHT22;54700;51.796;10.956;2024-03-23T15:53:46;6.20;93.20
67901;DHT22;54700;51.796;10.956;2024-03-23T15:56:15;6.00;92.20
67901;DHT22;54700;51.796;10.956;2024-03-23T15:58:41;6.00;93.10
67901;DHT22;54700;51.796;10.956;2024-03-23T16:01:08;6.00;93.60
67901;DHT22;54700;51.796;10.956;2024-03-23T16:03:34;6.00;94.40
67901;DHT22;54700;51.796;10.956;2024-03-23T16:06:01;5.90;93.90
67901;DHT22;54700;51.796;10.956;2024-03-23T16:08:29;5.90;94.00
67901;DHT22;54700;51.796;10.956;2024-03-23T16:10:59;5.90;94.10
67901;DHT22;54700;51.796;10.956;2024-03-23T16:13:27;6.00;94.30
67901;DHT22;54700;51.796;10.956;2024-03-23T16:15:54;6.10;94.00
67901;DHT22;54700;51.796;10.956;2024-03-23T16:18:21;6.20;94.30
67901;DHT22;54700;51.796;10.956;2024-03-23T16:20:54;6.30;94.10
67901;DHT22;54700;51.796;10.956;2024-03-23T16:23:20;6.20;92.80
67901;DHT22;54700;51.796;10.956;2024-03-23T16:25:48;6.10;93.80
67901;DHT22;54700;51.796;10.956;2024-03-23T16:28:24;6.00;94.80